sensor_id;sensor_type;location;lat;lon;timestamp;pressure;altitude;pressure_sealevel;temperature;humidity
50854;BME280;44154;45.506;-122.806;2022-09-09T00:01:13;100827.34;;;26.68;32.12
50854;BME280;44154;45.506;-122.806;2022-09-09T00:03:44;100824.84;;;26.72;31.87
50854;BME280;44154;45.506;-122.806;2022-09-09T00:06:27;100819.38;;;26.72;31.77
50854;BME280;44154;45.506;-122.806;2022-09-09T00:09:16;100821.03;;;26.73;31.76
50854;BME280;44154;45.506;-122.806;2022-09-09T00:11:53;100793.50;;;26.62;31.87
50854;BME280;44154;45.506;-122.806;2022-09-09T00:14:39;100815.00;;;26.76;31.78
50854;BME280;44154;45.506;-122.806;2022-09-09T00:17:14;100820.78;;;26.79;31.73
50854;BME280;44154;45.506;-122.806;2022-09-09T00:19:49;100803.19;;;26.80;31.69
50854;BME280;44154;45.506;-122.806;2022-09-09T00:22:21;100805.66;;;26.82;31.78
50854;BME280;44154;45.506;-122.806;2022-09-09T00:24:52;100805.41;;;26.83;31.23
50854;BME280;44154;45.506;-122.806;2022-09-09T00:30:32;100809.53;;;26.86;31.54
50854;BME280;44154;45.506;-122.806;2022-09-09T00:33:08;100727.00;;;26.40;31.84
50854;BME280;44154;45.506;-122.806;2022-09-09T00:35:45;100795.25;;;26.84;31.56
50854;BME280;44154;45.506;-122.806;2022-09-09T00:38:21;100794.41;;;26.83;31.49
50854;BME280;44154;45.506;-122.806;2022-09-09T00:40:53;100804.31;;;26.95;31.23
50854;BME280;44154;45.506;-122.806;2022-09-09T00:43:28;100809.56;;;26.96;31.70
50854;BME280;44154;45.506;-122.806;2022-09-09T00:54:54;100790.03;;;26.98;31.31
50854;BME280;44154;45.506;-122.806;2022-09-09T00:57:28;100788.97;;;27.04;31.31
50854;BME280;44154;45.506;-122.806;2022-09-09T01:06:00;100784.31;;;27.10;31.77
50854;BME280;44154;45.506;-122.806;2022-09-09T01:11:36;100758.47;;;27.00;32.31
50854;BME280;44154;45.506;-122.806;2022-09-09T01:14:45;100765.94;;;27.15;32.24
50854;BME280;44154;45.506;-122.806;2022-09-09T01:17:29;100768.94;;;27.19;32.11
50854;BME280;44154;45.506;-122.806;2022-09-09T01:22:37;100766.22;;;27.24;32.84
50854;BME280;44154;45.506;-122.806;2022-09-09T01:27:36;100765.66;;;27.27;32.58
50854;BME280;44154;45.506;-122.806;2022-09-09T01:30:14;100762.63;;;27.29;32.65
50854;BME280;44154;45.506;-122.806;2022-09-09T01:32:48;100756.03;;;27.30;33.36
50854;BME280;44154;45.506;-122.806;2022-09-09T01:35:37;100764.81;;;27.32;33.20
50854;BME280;44154;45.506;-122.806;2022-09-09T01:38:05;100757.16;;;27.34;33.56
50854;BME280;44154;45.506;-122.806;2022-09-09T01:40:32;100754.69;;;27.38;34.25
50854;BME280;44154;45.506;-122.806;2022-09-09T01:42:58;100739.00;;;27.33;34.07
50854;BME280;44154;45.506;-122.806;2022-09-09T01:45:24;100753.03;;;27.42;34.39
50854;BME280;44154;45.506;-122.806;2022-09-09T01:47:52;100742.03;;;27.31;34.73
50854;BME280;44154;45.506;-122.806;2022-09-09T01:50:20;100752.47;;;27.45;34.43
50854;BME280;44154;45.506;-122.806;2022-09-09T01:52:52;100746.72;;;27.46;34.24
50854;BME280;44154;45.506;-122.806;2022-09-09T01:55:29;100743.97;;;27.46;33.67
50854;BME280;44154;45.506;-122.806;2022-09-09T02:00:55;100739.28;;;27.52;33.48
50854;BME280;44154;45.506;-122.806;2022-09-09T02:03:28;100732.69;;;27.53;34.02
50854;BME280;44154;45.506;-122.806;2022-09-09T02:08:45;100753.56;;;27.54;33.53
50854;BME280;44154;45.506;-122.806;2022-09-09T02:11:15;100728.84;;;27.49;33.63
50854;BME280;44154;45.506;-122.806;2022-09-09T02:13:44;100736.50;;;27.57;33.46
50854;BME280;44154;45.506;-122.806;2022-09-09T02:18:50;100728.81;;;27.54;33.17
50854;BME280;44154;45.506;-122.806;2022-09-09T02:21:18;100731.28;;;27.61;33.28
50854;BME280;44154;45.506;-122.806;2022-09-09T02:23:47;100722.22;;;27.55;33.46
50854;BME280;44154;45.506;-122.806;2022-09-09T02:26:16;100739.25;;;27.62;33.75
50854;BME280;44154;45.506;-122.806;2022-09-09T02:28:47;100712.63;;;27.47;33.45
50854;BME280;44154;45.506;-122.806;2022-09-09T02:33:57;100729.06;;;27.63;33.36
50854;BME280;44154;45.506;-122.806;2022-09-09T02:36:29;100725.78;;;27.61;33.53
50854;BME280;44154;45.506;-122.806;2022-09-09T02:39:00;100704.91;;;27.49;33.59
50854;BME280;44154;45.506;-122.806;2022-09-09T02:41:33;100725.25;;;27.64;33.79
50854;BME280;44154;45.506;-122.806;2022-09-09T02:44:00;100726.06;;;27.64;33.75
50854;BME280;44154;45.506;-122.806;2022-09-09T02:46:41;100730.75;;;27.64;33.75
50854;BME280;44154;45.506;-122.806;2022-09-09T02:49:21;100717.84;;;27.59;33.81
50854;BME280;44154;45.506;-122.806;2022-09-09T02:52:13;100723.88;;;27.66;33.88
50854;BME280;44154;45.506;-122.806;2022-09-09T02:54:44;100697.50;;;27.50;33.58
50854;BME280;44154;45.506;-122.806;2022-09-09T02:57:13;100711.22;;;27.65;33.71
50854;BME280;44154;45.506;-122.806;2022-09-09T02:59:43;100642.28;;;27.21;33.57
50854;BME280;44154;45.506;-122.806;2022-09-09T03:02:11;100710.94;;;27.67;33.92
50854;BME280;44154;45.506;-122.806;2022-09-09T03:04:41;100673.88;;;27.44;33.59
50854;BME280;44154;45.506;-122.806;2022-09-09T03:07:16;100686.50;;;27.50;33.69
50854;BME280;44154;45.506;-122.806;2022-09-09T03:09:43;100699.44;;;27.55;33.84
50854;BME280;44154;45.506;-122.806;2022-09-09T03:12:10;100691.19;;;27.49;33.99
50854;BME280;44154;45.506;-122.806;2022-09-09T03:14:37;100721.94;;;27.72;34.04
50854;BME280;44154;45.506;-122.806;2022-09-09T03:17:05;100711.78;;;27.62;33.73
50854;BME280;44154;45.506;-122.806;2022-09-09T03:19:31;100699.16;;;27.51;33.78
50854;BME280;44154;45.506;-122.806;2022-09-09T03:21:58;100730.19;;;27.72;33.55
50854;BME280;44154;45.506;-122.806;2022-09-09T03:24:24;100731.28;;;27.71;33.94
50854;BME280;44154;45.506;-122.806;2022-09-09T03:26:51;100683.50;;;27.41;34.11
50854;BME280;44154;45.506;-122.806;2022-09-09T03:29:18;100721.13;;;27.61;33.74
50854;BME280;44154;45.506;-122.806;2022-09-09T03:31:44;100723.34;;;27.59;33.89
50854;BME280;44154;45.506;-122.806;2022-09-09T03:34:11;100700.25;;;27.45;33.55
50854;BME280;44154;45.506;-122.806;2022-09-09T03:36:37;100732.66;;;27.58;33.77
50854;BME280;44154;45.506;-122.806;2022-09-09T03:39:03;100724.97;;;27.55;33.76
50854;BME280;44154;45.506;-122.806;2022-09-09T03:41:30;100712.38;;;27.39;33.66
50854;BME280;44154;45.506;-122.806;2022-09-09T03:43:56;100733.25;;;27.45;33.68
50854;BME280;44154;45.506;-122.806;2022-09-09T03:46:24;100736.53;;;27.47;32.94
50854;BME280;44154;45.506;-122.806;2022-09-09T03:48:51;100450.06;;;25.71;33.15
50854;BME280;44154;45.506;-122.806;2022-09-09T03:51:20;100712.91;;;27.35;32.66
50854;BME280;44154;45.506;-122.806;2022-09-09T03:53:47;100712.91;;;27.35;32.76
50854;BME280;44154;45.506;-122.806;2022-09-09T03:56:14;100720.91;;;27.37;32.84
50854;BME280;44154;45.506;-122.806;2022-09-09T03:58:40;100718.41;;;27.41;32.78
50854;BME280;44154;45.506;-122.806;2022-09-09T04:01:09;100733.25;;;27.45;32.42
50854;BME280;44154;45.506;-122.806;2022-09-09T04:03:36;100665.09;;;27.06;32.09
50854;BME280;44154;45.506;-122.806;2022-09-09T04:06:04;100727.75;;;27.45;31.59
50854;BME280;44154;45.506;-122.806;2022-09-09T04:08:30;100718.13;;;27.42;31.73
50854;BME280;44154;45.506;-122.806;2022-09-09T04:11:01;100666.72;;;27.07;31.58
50854;BME280;44154;45.506;-122.806;2022-09-09T04:13:30;100710.72;;;27.38;31.18
50854;BME280;44154;45.506;-122.806;2022-09-09T04:15:58;100732.69;;;27.48;31.18
50854;BME280;44154;45.506;-122.806;2022-09-09T04:18:25;100728.28;;;27.47;31.30
50854;BME280;44154;45.506;-122.806;2022-09-09T04:20:52;100737.66;;;27.46;31.06
50854;BME280;44154;45.506;-122.806;2022-09-09T04:23:19;100726.38;;;27.47;31.23
50854;BME280;44154;45.506;-122.806;2022-09-09T04:25:50;100727.19;;;27.48;31.22
50854;BME280;44154;45.506;-122.806;2022-09-09T04:28:19;100727.19;;;27.48;31.01
50854;BME280;44154;45.506;-122.806;2022-09-09T04:30:45;100711.81;;;27.42;31.37
50854;BME280;44154;45.506;-122.806;2022-09-09T04:33:13;100731.88;;;27.47;31.48
50854;BME280;44154;45.506;-122.806;2022-09-09T04:35:47;100716.75;;;27.45;31.39
50854;BME280;44154;45.506;-122.806;2022-09-09T04:38:14;100712.91;;;27.46;31.30
50854;BME280;44154;45.506;-122.806;2022-09-09T04:40:47;100701.91;;;27.35;31.27
50854;BME280;44154;45.506;-122.806;2022-09-09T04:43:13;100709.06;;;27.42;30.78
50854;BME280;44154;45.506;-122.806;2022-09-09T04:45:43;100715.09;;;27.44;30.72
50854;BME280;44154;45.506;-122.806;2022-09-09T04:48:09;100720.03;;;27.47;30.46
50854;BME280;44154;45.506;-122.806;2022-09-09T04:50:36;100708.50;;;27.40;30.46
50854;BME280;44154;45.506;-122.806;2022-09-09T04:53:03;100721.44;;;27.44;30.28
50854;BME280;44154;45.506;-122.806;2022-09-09T04:55:31;100706.59;;;27.40;30.12
50854;BME280;44154;45.506;-122.806;2022-09-09T04:57:58;100704.13;;;27.39;29.91
50854;BME280;44154;45.506;-122.806;2022-09-09T05:00:28;100651.38;;;27.06;30.13
50854;BME280;44154;45.506;-122.806;2022-09-09T05:02:54;100683.22;;;27.27;30.13
50854;BME280;44154;45.506;-122.806;2022-09-09T05:05:20;100677.44;;;27.24;29.85
50854;BME280;44154;45.506;-122.806;2022-09-09T05:07:46;100696.69;;;27.29;30.15
50854;BME280;44154;45.506;-122.806;2022-09-09T05:10:13;100710.16;;;27.41;30.12
50854;BME280;44154;45.506;-122.806;2022-09-09T05:12:42;100678.00;;;27.21;29.84
50854;BME280;44154;45.506;-122.806;2022-09-09T05:15:08;100665.66;;;27.13;29.42
50854;BME280;44154;45.506;-122.806;2022-09-09T05:17:35;100636.81;;;26.95;29.46
50854;BME280;44154;45.506;-122.806;2022-09-09T05:20:01;100675.00;;;27.17;29.04
50854;BME280;44154;45.506;-122.806;2022-09-09T05:22:29;100706.03;;;27.38;29.19
50854;BME280;44154;45.506;-122.806;2022-09-09T05:24:56;100677.19;;;27.20;29.26
50854;BME280;44154;45.506;-122.806;2022-09-09T05:27:22;100675.00;;;27.17;29.30
50854;BME280;44154;45.506;-122.806;2022-09-09T05:29:48;100668.38;;;27.18;29.32
50854;BME280;44154;45.506;-122.806;2022-09-09T05:32:14;100690.34;;;27.23;29.31
50854;BME280;44154;45.506;-122.806;2022-09-09T05:34:43;100703.84;;;27.30;29.05
50854;BME280;44154;45.506;-122.806;2022-09-09T05:37:09;100636.81;;;26.85;29.91
50854;BME280;44154;45.506;-122.806;2022-09-09T05:39:35;100676.63;;;27.18;29.45
50854;BME280;44154;45.506;-122.806;2022-09-09T05:42:02;100658.50;;;27.12;30.20
50854;BME280;44154;45.506;-122.806;2022-09-09T05:44:30;100692.03;;;27.34;30.46
50854;BME280;44154;45.506;-122.806;2022-09-09T05:46:56;100692.00;;;27.29;30.72
50854;BME280;44154;45.506;-122.806;2022-09-09T05:49:23;100694.75;;;27.29;31.33
50854;BME280;44154;45.506;-122.806;2022-09-09T05:51:50;100669.22;;;27.18;32.39
50854;BME280;44154;45.506;-122.806;2022-09-09T05:54:16;100684.84;;;27.28;32.19
50854;BME280;44154;45.506;-122.806;2022-09-09T05:56:43;100705.22;;;27.38;31.84
50854;BME280;44154;45.506;-122.806;2022-09-09T05:59:09;100705.22;;;27.38;32.56
50854;BME280;44154;45.506;-122.806;2022-09-09T06:01:36;100700.81;;;27.37;31.98
50854;BME280;44154;45.506;-122.806;2022-09-09T06:04:06;100665.91;;;27.16;31.51
50854;BME280;44154;45.506;-122.806;2022-09-09T06:06:37;100692.56;;;27.26;31.63
50854;BME280;44154;45.506;-122.806;2022-09-09T06:09:06;100694.50;;;27.36;31.96
50854;BME280;44154;45.506;-122.806;2022-09-09T06:11:37;100680.19;;;27.34;31.90
50854;BME280;44154;45.506;-122.806;2022-09-09T06:14:04;100662.88;;;27.18;32.44
50854;BME280;44154;45.506;-122.806;2022-09-09T06:16:31;100638.72;;;27.10;32.60
50854;BME280;44154;45.506;-122.806;2022-09-09T06:19:01;100675.28;;;27.36;32.31
50854;BME280;44154;45.506;-122.806;2022-09-09T06:21:32;100666.72;;;27.27;32.50
50854;BME280;44154;45.506;-122.806;2022-09-09T06:23:59;100678.53;;;27.33;32.17
50854;BME280;44154;45.506;-122.806;2022-09-09T06:26:33;100677.69;;;27.32;32.18
50854;BME280;44154;45.506;-122.806;2022-09-09T06:29:02;100671.38;;;27.27;32.49
50854;BME280;44154;45.506;-122.806;2022-09-09T06:31:33;100676.06;;;27.31;32.37
50854;BME280;44154;45.506;-122.806;2022-09-09T06:34:00;100681.56;;;27.31;32.45
50854;BME280;44154;45.506;-122.806;2022-09-09T06:36:29;100628.56;;;27.00;32.40
50854;BME280;44154;45.506;-122.806;2022-09-09T06:38:55;100658.47;;;27.22;32.88
50854;BME280;44154;45.506;-122.806;2022-09-09T06:41:23;100662.31;;;27.26;32.55
50854;BME280;44154;45.506;-122.806;2022-09-09T06:43:50;100652.44;;;27.25;32.14
50854;BME280;44154;45.506;-122.806;2022-09-09T06:46:18;100662.88;;;27.23;32.01
50854;BME280;44154;45.506;-122.806;2022-09-09T06:48:45;100623.34;;;26.93;31.41
50854;BME280;44154;45.506;-122.806;2022-09-09T06:51:14;100631.56;;;27.04;31.06
50854;BME280;44154;45.506;-122.806;2022-09-09T06:53:42;100665.06;;;27.21;30.59
50854;BME280;44154;45.506;-122.806;2022-09-09T06:58:37;100600.84;;;26.81;30.28
50854;BME280;44154;45.506;-122.806;2022-09-09T07:01:06;100645.88;;;27.00;30.15
50854;BME280;44154;45.506;-122.806;2022-09-09T07:03:33;100658.75;;;27.05;30.26
50854;BME280;44154;45.506;-122.806;2022-09-09T07:05:59;100650.25;;;27.07;30.08
50854;BME280;44154;45.506;-122.806;2022-09-09T07:08:26;100641.47;;;26.99;30.49
50854;BME280;44154;45.506;-122.806;2022-09-09T07:10:53;100655.75;;;27.07;30.30
50854;BME280;44154;45.506;-122.806;2022-09-09T07:13:26;100650.25;;;27.07;30.62
50854;BME280;44154;45.506;-122.806;2022-09-09T07:15:53;100653.00;;;27.12;30.24
50854;BME280;44154;45.506;-122.806;2022-09-09T07:18:20;100646.94;;;26.99;30.24
50854;BME280;44154;45.506;-122.806;2022-09-09T07:20:55;100656.03;;;27.00;30.13
50854;BME280;44154;45.506;-122.806;2022-09-09T07:23:23;100653.81;;;27.02;30.33
50854;BME280;44154;45.506;-122.806;2022-09-09T07:25:50;100634.88;;;26.90;30.37
50854;BME280;44154;45.506;-122.806;2022-09-09T07:28:17;100660.16;;;27.03;30.16
50854;BME280;44154;45.506;-122.806;2022-09-09T07:30:43;100640.94;;;26.87;29.85
50854;BME280;44154;45.506;-122.806;2022-09-09T07:33:09;100661.53;;;27.00;29.71
50854;BME280;44154;45.506;-122.806;2022-09-09T07:35:36;100655.75;;;26.96;29.78
50854;BME280;44154;45.506;-122.806;2022-09-09T07:38:03;100650.25;;;26.96;29.78
50854;BME280;44154;45.506;-122.806;2022-09-09T07:40:33;100648.06;;;26.83;29.81
50854;BME280;44154;45.506;-122.806;2022-09-09T07:43:00;100663.44;;;26.94;29.72
50854;BME280;44154;45.506;-122.806;2022-09-09T07:45:26;100641.19;;;26.80;29.53
50854;BME280;44154;45.506;-122.806;2022-09-09T07:47:59;100632.16;;;26.80;29.66
50854;BME280;44154;45.506;-122.806;2022-09-09T07:50:25;100640.94;;;26.87;29.50
50854;BME280;44154;45.506;-122.806;2022-09-09T07:52:52;100634.34;;;26.88;29.97
50854;BME280;44154;45.506;-122.806;2022-09-09T07:55:20;100617.59;;;26.79;30.56
50854;BME280;44154;45.506;-122.806;2022-09-09T07:57:46;100603.00;;;26.63;30.95
50854;BME280;44154;45.506;-122.806;2022-09-09T08:00:13;100612.63;;;26.76;31.32
50854;BME280;44154;45.506;-122.806;2022-09-09T08:02:40;100639.00;;;26.82;31.45
50854;BME280;44154;45.506;-122.806;2022-09-09T08:05:07;100644.50;;;26.88;31.41
50854;BME280;44154;45.506;-122.806;2022-09-09T08:07:33;100632.13;;;26.85;31.75
50854;BME280;44154;45.506;-122.806;2022-09-09T08:09:59;100631.59;;;26.88;31.93
50854;BME280;44154;45.506;-122.806;2022-09-09T08:12:26;100614.28;;;26.77;31.93
50854;BME280;44154;45.506;-122.806;2022-09-09T08:14:52;100632.41;;;26.89;31.84
50854;BME280;44154;45.506;-122.806;2022-09-09T08:17:19;100607.97;;;26.72;31.68
50854;BME280;44154;45.506;-122.806;2022-09-09T08:19:45;100600.81;;;26.65;31.36
50854;BME280;44154;45.506;-122.806;2022-09-09T08:22:12;100557.69;;;26.40;31.39
50854;BME280;44154;45.506;-122.806;2022-09-09T08:24:38;100621.69;;;26.82;31.73
50854;BME280;44154;45.506;-122.806;2022-09-09T08:27:04;100629.94;;;26.77;31.61
50854;BME280;44154;45.506;-122.806;2022-09-09T08:29:31;100628.28;;;26.86;31.62
50854;BME280;44154;45.506;-122.806;2022-09-09T08:31:58;100631.59;;;26.88;31.72
50854;BME280;44154;45.506;-122.806;2022-09-09T08:34:25;100637.09;;;26.88;31.98
50854;BME280;44154;45.506;-122.806;2022-09-09T08:36:53;100632.41;;;26.89;32.09
50854;BME280;44154;45.506;-122.806;2022-09-09T08:39:20;100631.59;;;26.88;32.10
50854;BME280;44154;45.506;-122.806;2022-09-09T08:49:57;100613.47;;;26.87;32.01
50854;BME280;44154;45.506;-122.806;2022-09-09T08:52:30;100611.25;;;26.89;32.15
50854;BME280;44154;45.506;-122.806;2022-09-09T08:57:39;100609.09;;;26.91;32.49
50854;BME280;44154;45.506;-122.806;2022-09-09T09:00:07;100569.25;;;26.73;32.35
50854;BME280;44154;45.506;-122.806;2022-09-09T09:05:47;100593.16;;;26.88;32.58
50854;BME280;44154;45.506;-122.806;2022-09-09T09:10:54;100575.03;;;26.82;32.69
50854;BME280;44154;45.506;-122.806;2022-09-09T09:16:17;100583.53;;;26.91;32.40
50854;BME280;44154;45.506;-122.806;2022-09-09T09:18:46;100551.97;;;26.73;32.43
50854;BME280;44154;45.506;-122.806;2022-09-09T09:21:18;100559.66;;;26.81;32.65
50854;BME280;44154;45.506;-122.806;2022-09-09T09:23:56;100565.16;;;26.81;32.60
50854;BME280;44154;45.506;-122.806;2022-09-09T09:26:25;100539.09;;;26.68;32.74
50854;BME280;44154;45.506;-122.806;2022-09-09T09:28:56;100460.88;;;26.19;32.42
50854;BME280;44154;45.506;-122.806;2022-09-09T09:31:25;100570.34;;;26.88;32.49
50854;BME280;44154;45.506;-122.806;2022-09-09T09:33:54;100571.19;;;26.88;32.17
50854;BME280;44154;45.506;-122.806;2022-09-09T09:36:24;100491.31;;;26.38;32.39
50854;BME280;44154;45.506;-122.806;2022-09-09T09:39:00;100567.59;;;26.88;32.84
50854;BME280;44154;45.506;-122.806;2022-09-09T09:41:36;100563.22;;;26.87;32.63
50854;BME280;44154;45.506;-122.806;2022-09-09T09:44:05;100567.88;;;26.86;32.76
50854;BME280;44154;45.506;-122.806;2022-09-09T09:46:33;100540.16;;;26.77;32.92
50854;BME280;44154;45.506;-122.806;2022-09-09T09:49:01;100558.00;;;26.85;32.77
50854;BME280;44154;45.506;-122.806;2022-09-09T09:51:29;100549.78;;;26.80;32.80
50854;BME280;44154;45.506;-122.806;2022-09-09T09:54:27;100551.16;;;26.82;32.64
50854;BME280;44154;45.506;-122.806;2022-09-09T09:56:55;100545.91;;;26.86;32.80
50854;BME280;44154;45.506;-122.806;2022-09-09T10:02:14;100544.56;;;26.78;32.79
50854;BME280;44154;45.506;-122.806;2022-09-09T10:04:41;100533.28;;;26.75;32.56
50854;BME280;44154;45.506;-122.806;2022-09-09T10:07:19;100516.28;;;26.62;32.33
50854;BME280;44154;45.506;-122.806;2022-09-09T10:09:53;100533.03;;;26.76;32.14
50854;BME280;44154;45.506;-122.806;2022-09-09T10:12:50;100448.25;;;26.18;32.40
50854;BME280;44154;45.506;-122.806;2022-09-09T10:15:39;100536.31;;;26.73;32.36
50854;BME280;44154;45.506;-122.806;2022-09-09T10:27:24;100532.75;;;26.78;32.22
50854;BME280;44154;45.506;-122.806;2022-09-09T10:30:06;100534.41;;;26.79;31.88
50854;BME280;44154;45.506;-122.806;2022-09-09T10:32:40;100531.94;;;26.77;31.85
50854;BME280;44154;45.506;-122.806;2022-09-09T10:53:47;100526.72;;;26.71;32.55
50854;BME280;44154;45.506;-122.806;2022-09-09T10:56:18;100522.34;;;26.70;32.08
50854;BME280;44154;45.506;-122.806;2022-09-09T10:58:51;100522.34;;;26.70;32.22
50854;BME280;44154;45.506;-122.806;2022-09-09T11:01:28;100469.06;;;26.35;32.48
50854;BME280;44154;45.506;-122.806;2022-09-09T11:04:10;100510.22;;;26.60;32.14
50854;BME280;44154;45.506;-122.806;2022-09-09T11:06:43;100523.97;;;26.65;32.26
50854;BME280;44154;45.506;-122.806;2022-09-09T11:09:16;100510.75;;;26.67;32.05
50854;BME280;44154;45.506;-122.806;2022-09-09T11:12:03;100519.59;;;26.70;32.02
50854;BME280;44154;45.506;-122.806;2022-09-09T11:14:43;100523.44;;;26.69;32.10
50854;BME280;44154;45.506;-122.806;2022-09-09T11:19:44;100516.84;;;26.59;32.17
50854;BME280;44154;45.506;-122.806;2022-09-09T11:33:04;100467.16;;;26.30;32.06
50854;BME280;44154;45.506;-122.806;2022-09-09T11:41:36;100497.59;;;26.49;32.06
50854;BME280;44154;45.506;-122.806;2022-09-09T11:44:17;100513.00;;;26.55;32.25
50854;BME280;44154;45.506;-122.806;2022-09-09T11:46:49;100497.59;;;26.49;32.02
50854;BME280;44154;45.506;-122.806;2022-09-09T11:51:52;100508.56;;;26.49;32.10
50854;BME280;44154;45.506;-122.806;2022-09-09T11:54:32;100502.00;;;26.35;32.23
50854;BME280;44154;45.506;-122.806;2022-09-09T11:56:58;100511.88;;;26.51;32.16
50854;BME280;44154;45.506;-122.806;2022-09-09T11:59:29;100429.56;;;25.89;32.00
50854;BME280;44154;45.506;-122.806;2022-09-09T12:02:14;100479.50;;;26.27;31.91
50854;BME280;44154;45.506;-122.806;2022-09-09T12:04:55;100481.69;;;26.36;32.03
50854;BME280;44154;45.506;-122.806;2022-09-09T12:12:35;100486.06;;;26.42;31.95
50854;BME280;44154;45.506;-122.806;2022-09-09T12:17:45;100503.38;;;26.42;32.03
50854;BME280;44154;45.506;-122.806;2022-09-09T12:20:17;100500.91;;;26.41;32.03
50854;BME280;44154;45.506;-122.806;2022-09-09T12:33:19;100475.13;;;26.31;31.86
50854;BME280;44154;45.506;-122.806;2022-09-09T12:35:59;100452.63;;;26.14;31.97
50854;BME280;44154;45.506;-122.806;2022-09-09T12:38:39;100467.97;;;26.20;32.01
50854;BME280;44154;45.506;-122.806;2022-09-09T12:41:06;100455.38;;;26.09;31.74
50854;BME280;44154;45.506;-122.806;2022-09-09T12:43:45;100487.22;;;26.30;31.82
50854;BME280;44154;45.506;-122.806;2022-09-09T12:48:53;100471.28;;;26.22;32.09
50854;BME280;44154;45.506;-122.806;2022-09-09T12:51:31;100389.50;;;25.62;31.88
50854;BME280;44154;45.506;-122.806;2022-09-09T12:53:59;100455.09;;;26.05;32.01
50854;BME280;44154;45.506;-122.806;2022-09-09T12:56:31;100193.66;;;24.40;31.90
50854;BME280;44154;45.506;-122.806;2022-09-09T12:58:58;100455.09;;;26.05;31.91
50854;BME280;44154;45.506;-122.806;2022-09-09T13:01:32;100471.28;;;26.17;32.02
50854;BME280;44154;45.506;-122.806;2022-09-09T13:03:59;100463.34;;;26.10;31.92
50854;BME280;44154;45.506;-122.806;2022-09-09T13:06:30;100464.69;;;26.13;31.83
50854;BME280;44154;45.506;-122.806;2022-09-09T13:09:03;100463.06;;;26.12;31.87
50854;BME280;44154;45.506;-122.806;2022-09-09T13:11:30;100373.88;;;25.53;31.87
50854;BME280;44154;45.506;-122.806;2022-09-09T13:14:01;100471.81;;;26.14;31.48
50854;BME280;44154;45.506;-122.806;2022-09-09T13:16:30;100448.22;;;26.03;31.28
50854;BME280;44154;45.506;-122.806;2022-09-09T13:19:02;100406.22;;;25.71;31.32
50854;BME280;44154;45.506;-122.806;2022-09-09T13:21:39;100460.56;;;26.05;31.49
50854;BME280;44154;45.506;-122.806;2022-09-09T13:24:21;100443.28;;;25.94;31.29
50854;BME280;44154;45.506;-122.806;2022-09-09T13:27:03;100374.69;;;25.53;31.27
50854;BME280;44154;45.506;-122.806;2022-09-09T13:29:31;100421.84;;;25.81;31.18
50854;BME280;44154;45.506;-122.806;2022-09-09T13:32:05;100457.00;;;25.94;31.00
50854;BME280;44154;45.506;-122.806;2022-09-09T13:34:34;100449.81;;;25.88;31.26
50854;BME280;44154;45.506;-122.806;2022-09-09T13:37:04;100356.81;;;25.30;31.18
50854;BME280;44154;45.506;-122.806;2022-09-09T13:39:34;100442.69;;;25.77;31.32
50854;BME280;44154;45.506;-122.806;2022-09-09T13:42:03;100455.88;;;25.85;31.51
50854;BME280;44154;45.506;-122.806;2022-09-09T13:44:34;100461.34;;;25.85;31.58
50854;BME280;44154;45.506;-122.806;2022-09-09T13:47:06;100377.34;;;25.22;31.76
50854;BME280;44154;45.506;-122.806;2022-09-09T13:49:32;100439.09;;;25.61;32.13
50854;BME280;44154;45.506;-122.806;2022-09-09T13:52:13;100462.97;;;25.76;31.67
50854;BME280;44154;45.506;-122.806;2022-09-09T13:54:40;100424.56;;;25.55;31.60
50854;BME280;44154;45.506;-122.806;2022-09-09T13:57:18;100395.97;;;25.25;31.65
50854;BME280;44154;45.506;-122.806;2022-09-09T13:59:46;100460.78;;;25.68;31.57
50854;BME280;44154;45.506;-122.806;2022-09-09T14:02:14;100459.38;;;25.60;31.52
50854;BME280;44154;45.506;-122.806;2022-09-09T14:04:40;100454.97;;;25.54;31.25
50854;BME280;44154;45.506;-122.806;2022-09-09T14:07:16;100428.34;;;25.39;31.32
50854;BME280;44154;45.506;-122.806;2022-09-09T14:09:43;100462.66;;;25.52;31.28
50854;BME280;44154;45.506;-122.806;2022-09-09T14:12:13;100467.81;;;25.48;31.15
50854;BME280;44154;45.506;-122.806;2022-09-09T14:14:40;100429.38;;;25.22;31.51
50854;BME280;44154;45.506;-122.806;2022-09-09T14:17:08;100456.28;;;25.41;31.24
50854;BME280;44154;45.506;-122.806;2022-09-09T14:19:34;100462.31;;;25.38;31.61
50854;BME280;44154;45.506;-122.806;2022-09-09T14:22:02;100451.91;;;25.35;31.83
50854;BME280;44154;45.506;-122.806;2022-09-09T14:24:28;100435.41;;;25.24;31.83
50854;BME280;44154;45.506;-122.806;2022-09-09T14:26:55;100434.28;;;25.15;31.91
50854;BME280;44154;45.506;-122.806;2022-09-09T14:29:21;100387.88;;;24.83;31.68
50854;BME280;44154;45.506;-122.806;2022-09-09T14:31:47;100373.81;;;24.69;32.03
50854;BME280;44154;45.506;-122.806;2022-09-09T14:34:14;100439.47;;;25.11;32.00
50854;BME280;44154;45.506;-122.806;2022-09-09T14:36:40;100459.75;;;25.16;32.32
50854;BME280;44154;45.506;-122.806;2022-09-09T14:39:07;100440.84;;;25.14;32.30
50854;BME280;44154;45.506;-122.806;2022-09-09T14:41:34;100455.09;;;25.16;32.34
50854;BME280;44154;45.506;-122.806;2022-09-09T14:44:00;100448.50;;;25.12;32.51
50854;BME280;44154;45.506;-122.806;2022-09-09T14:46:26;100445.16;;;25.00;32.88
50854;BME280;44154;45.506;-122.806;2022-09-09T14:48:52;100442.69;;;25.03;32.90